Airfield :
LOGIN :

Register | Disclaimer

   EN    FR    IT 

 










Legend :    VFR   Marginal VFR   IFR   Intensive IFR   Very Intensive IFR
Visi :
Ceiling :
>= 8 km
>= 3000ft
5 to 8 km
1000 to 3000 ft
1500m to 5 km
500 to 1000 ft
800 to 1500m
200 to 500 ft
< 800m
< 200 ft
Symbols :   Thunderstorms  Fog  Heavy snow  Heavy precipitations  Wind > 20 kt
SIGMETs :     Misc.  Thunderstorms  Icing  Turbulence  Mountain Waves  Volcanic Ashes






- Airport Elevation : 157 ft
- IATA code : SXF


EDDB - Berlin Schönefeld

CURRENT METAR :
  • 011350Z 24008KT 210V270 9999 FEW040TCU 22/12 Q1007 TEMPO SHRA

EXPIRED METARs :
  • 011320Z 24006KT 190V320 9999 SCT040 23/12 Q1007 NOSIG
  • 011250Z 23006KT 160V300 9999 SCT035 22/13 Q1007 NOSIG
  • 011220Z 24007KT 200V280 9999 SCT034 21/13 Q1007 NOSIG
  • 011150Z 22008KT 190V250 9999 SCT032 21/13 Q1007 NOSIG
  • 011120Z 25009KT 210V290 9999 SCT030 20/13 Q1007 NOSIG

TAF AMD TAF EDDB
Valid from the 01 at 13:00 until the 02 at 12:00 UTC


011349Z 0113/0212 26007KT 9999 SCT040
PROB30
TEMPO 0114/0118 SHRA BKN035CB
BECMG 0205/0207 27012KT



MET'MAP, your aeronautical weather chart ! - Copyright ORBIFLY December 2007 - Disclaimer

ORBIFLY MET'MAP TEAM :

Programming & Development : Alexandra Zaïnal
Concept & original design : Baudouin d'Aumeries
Assistance for programming : Marc-Olivier Méhu
Technical & hardware support : Manuel Goepfert

Contact : metmap@orbifly.com




SOURCES & CREDITS :

   NOAA